sensor_id;sensor_type;location;lat;lon;timestamp;temperature;humidity
298;DHT22;133;49.626;9.680;2024-02-16T00:00:24;11.10;90.90
298;DHT22;133;49.626;9.680;2024-02-16T00:02:50;11.10;90.60
298;DHT22;133;49.626;9.680;2024-02-16T00:05:16;11.10;90.70
298;DHT22;133;49.626;9.680;2024-02-16T00:07:41;11.00;91.00
298;DHT22;133;49.626;9.680;2024-02-16T00:10:08;10.90;90.90
298;DHT22;133;49.626;9.680;2024-02-16T00:12:35;10.90;91.40
298;DHT22;133;49.626;9.680;2024-02-16T00:15:02;10.90;91.20
298;DHT22;133;49.626;9.680;2024-02-16T00:17:28;10.90;91.40
298;DHT22;133;49.626;9.680;2024-02-16T00:19:54;10.80;91.80
298;DHT22;133;49.626;9.680;2024-02-16T00:22:20;10.90;91.60
298;DHT22;133;49.626;9.680;2024-02-16T00:24:46;11.00;91.60
298;DHT22;133;49.626;9.680;2024-02-16T00:27:11;11.00;91.50
298;DHT22;133;49.626;9.680;2024-02-16T00:29:37;11.00;91.20
298;DHT22;133;49.626;9.680;2024-02-16T00:32:06;11.10;90.90
298;DHT22;133;49.626;9.680;2024-02-16T00:34:33;11.10;91.00
298;DHT22;133;49.626;9.680;2024-02-16T00:36:59;11.10;90.90
298;DHT22;133;49.626;9.680;2024-02-16T00:39:25;11.10;90.80
298;DHT22;133;49.626;9.680;2024-02-16T00:41:51;11.20;90.70
298;DHT22;133;49.626;9.680;2024-02-16T00:44:17;11.20;90.40
298;DHT22;133;49.626;9.680;2024-02-16T00:46:43;11.20;90.40
298;DHT22;133;49.626;9.680;2024-02-16T00:49:09;11.10;90.50
298;DHT22;133;49.626;9.680;2024-02-16T00:51:38;11.10;90.70
298;DHT22;133;49.626;9.680;2024-02-16T00:54:04;11.10;90.90
298;DHT22;133;49.626;9.680;2024-02-16T00:56:34;11.20;90.90
298;DHT22;133;49.626;9.680;2024-02-16T00:58:59;11.20;90.70
298;DHT22;133;49.626;9.680;2024-02-16T01:01:25;11.20;90.60
298;DHT22;133;49.626;9.680;2024-02-16T01:03:52;11.10;90.70
298;DHT22;133;49.626;9.680;2024-02-16T01:06:18;11.10;90.70
298;DHT22;133;49.626;9.680;2024-02-16T01:08:44;11.00;90.80
298;DHT22;133;49.626;9.680;2024-02-16T01:11:10;11.00;90.80
298;DHT22;133;49.626;9.680;2024-02-16T01:13:36;10.90;90.80
298;DHT22;133;49.626;9.680;2024-02-16T01:16:03;11.00;91.20
298;DHT22;133;49.626;9.680;2024-02-16T01:18:29;10.90;91.30
298;DHT22;133;49.626;9.680;2024-02-16T01:20:55;10.90;91.50
298;DHT22;133;49.626;9.680;2024-02-16T01:23:21;10.90;91.60
298;DHT22;133;49.626;9.680;2024-02-16T01:25:47;10.90;91.60
298;DHT22;133;49.626;9.680;2024-02-16T01:28:13;10.80;91.50
298;DHT22;133;49.626;9.680;2024-02-16T01:30:40;10.80;91.60
298;DHT22;133;49.626;9.680;2024-02-16T01:33:06;10.80;91.60
298;DHT22;133;49.626;9.680;2024-02-16T01:35:33;10.80;91.50
298;DHT22;133;49.626;9.680;2024-02-16T01:37:58;10.80;91.40
298;DHT22;133;49.626;9.680;2024-02-16T01:40:24;10.70;91.60
298;DHT22;133;49.626;9.680;2024-02-16T01:42:52;10.60;92.10
298;DHT22;133;49.626;9.680;2024-02-16T01:45:21;10.60;92.20
298;DHT22;133;49.626;9.680;2024-02-16T01:47:49;10.60;92.20
298;DHT22;133;49.626;9.680;2024-02-16T01:50:16;10.60;92.00
298;DHT22;133;49.626;9.680;2024-02-16T01:52:43;10.70;92.20
298;DHT22;133;49.626;9.680;2024-02-16T01:55:09;10.70;92.40
298;DHT22;133;49.626;9.680;2024-02-16T01:57:36;10.70;92.40
298;DHT22;133;49.626;9.680;2024-02-16T02:00:03;10.60;92.20
298;DHT22;133;49.626;9.680;2024-02-16T02:02:29;10.50;92.40
298;DHT22;133;49.626;9.680;2024-02-16T02:04:54;10.50;92.50
298;DHT22;133;49.626;9.680;2024-02-16T02:07:25;10.50;92.60
298;DHT22;133;49.626;9.680;2024-02-16T02:09:52;10.50;92.80
298;DHT22;133;49.626;9.680;2024-02-16T02:12:18;10.60;92.40
298;DHT22;133;49.626;9.680;2024-02-16T02:14:43;10.60;92.30
298;DHT22;133;49.626;9.680;2024-02-16T02:17:09;10.60;92.70
298;DHT22;133;49.626;9.680;2024-02-16T02:19:35;10.50;93.00
298;DHT22;133;49.626;9.680;2024-02-16T02:22:01;10.60;92.80
298;DHT22;133;49.626;9.680;2024-02-16T02:24:27;10.50;92.50
298;DHT22;133;49.626;9.680;2024-02-16T02:26:52;10.50;92.50
298;DHT22;133;49.626;9.680;2024-02-16T02:29:18;10.50;92.70
298;DHT22;133;49.626;9.680;2024-02-16T02:31:43;10.40;92.90
298;DHT22;133;49.626;9.680;2024-02-16T02:34:09;10.40;93.20
298;DHT22;133;49.626;9.680;2024-02-16T02:36:35;10.40;93.30
298;DHT22;133;49.626;9.680;2024-02-16T02:39:01;10.40;93.00
298;DHT22;133;49.626;9.680;2024-02-16T02:41:27;10.40;93.10
298;DHT22;133;49.626;9.680;2024-02-16T02:43:53;10.40;92.90
298;DHT22;133;49.626;9.680;2024-02-16T02:46:19;10.40;92.90
298;DHT22;133;49.626;9.680;2024-02-16T02:48:45;10.40;93.10
298;DHT22;133;49.626;9.680;2024-02-16T02:51:11;10.40;93.10
298;DHT22;133;49.626;9.680;2024-02-16T02:53:37;10.40;93.10
298;DHT22;133;49.626;9.680;2024-02-16T02:56:04;10.30;92.80
298;DHT22;133;49.626;9.680;2024-02-16T02:58:30;10.20;92.80
298;DHT22;133;49.626;9.680;2024-02-16T03:00:55;10.20;92.80
298;DHT22;133;49.626;9.680;2024-02-16T03:03:22;10.20;93.00
298;DHT22;133;49.626;9.680;2024-02-16T03:05:48;10.10;93.30
298;DHT22;133;49.626;9.680;2024-02-16T03:08:14;10.20;93.30
298;DHT22;133;49.626;9.680;2024-02-16T03:10:40;10.10;93.10
298;DHT22;133;49.626;9.680;2024-02-16T03:13:06;10.20;93.10
298;DHT22;133;49.626;9.680;2024-02-16T03:15:35;10.10;93.50
298;DHT22;133;49.626;9.680;2024-02-16T03:18:01;10.00;94.00
298;DHT22;133;49.626;9.680;2024-02-16T03:20:27;10.00;94.30
298;DHT22;133;49.626;9.680;2024-02-16T03:22:53;10.00;94.40
298;DHT22;133;49.626;9.680;2024-02-16T03:25:19;10.10;94.10
298;DHT22;133;49.626;9.680;2024-02-16T03:27:45;10.00;93.80
298;DHT22;133;49.626;9.680;2024-02-16T03:30:11;10.00;93.80
298;DHT22;133;49.626;9.680;2024-02-16T03:32:37;10.00;93.70
298;DHT22;133;49.626;9.680;2024-02-16T03:35:03;10.00;93.80
298;DHT22;133;49.626;9.680;2024-02-16T03:37:29;10.00;94.00
298;DHT22;133;49.626;9.680;2024-02-16T03:39:56;9.90;94.30
298;DHT22;133;49.626;9.680;2024-02-16T03:42:21;9.90;94.30
298;DHT22;133;49.626;9.680;2024-02-16T03:44:47;9.90;93.90
298;DHT22;133;49.626;9.680;2024-02-16T03:47:12;9.90;94.20
298;DHT22;133;49.626;9.680;2024-02-16T03:49:39;9.90;94.30
298;DHT22;133;49.626;9.680;2024-02-16T03:52:05;9.80;94.50
298;DHT22;133;49.626;9.680;2024-02-16T03:54:30;9.80;94.50
298;DHT22;133;49.626;9.680;2024-02-16T03:56:57;9.80;94.60
298;DHT22;133;49.626;9.680;2024-02-16T03:59:26;9.90;94.70
298;DHT22;133;49.626;9.680;2024-02-16T04:01:51;9.80;94.80
298;DHT22;133;49.626;9.680;2024-02-16T04:04:18;9.80;94.40
298;DHT22;133;49.626;9.680;2024-02-16T04:06:43;9.80;94.50
298;DHT22;133;49.626;9.680;2024-02-16T04:09:09;9.80;94.50
298;DHT22;133;49.626;9.680;2024-02-16T04:11:36;9.90;94.60
298;DHT22;133;49.626;9.680;2024-02-16T04:14:02;9.90;94.70
298;DHT22;133;49.626;9.680;2024-02-16T04:16:28;9.90;94.60
298;DHT22;133;49.626;9.680;2024-02-16T04:18:54;9.90;94.40
298;DHT22;133;49.626;9.680;2024-02-16T04:21:20;9.90;94.40
298;DHT22;133;49.626;9.680;2024-02-16T04:23:46;9.80;94.50
298;DHT22;133;49.626;9.680;2024-02-16T04:26:12;9.80;94.60
298;DHT22;133;49.626;9.680;2024-02-16T04:28:37;9.80;94.70
298;DHT22;133;49.626;9.680;2024-02-16T04:31:04;9.80;94.80
298;DHT22;133;49.626;9.680;2024-02-16T04:33:30;9.80;94.60
298;DHT22;133;49.626;9.680;2024-02-16T04:35:55;9.80;94.80
298;DHT22;133;49.626;9.680;2024-02-16T04:38:21;9.90;94.70
298;DHT22;133;49.626;9.680;2024-02-16T04:40:46;9.90;94.40
298;DHT22;133;49.626;9.680;2024-02-16T04:43:12;9.90;94.30
298;DHT22;133;49.626;9.680;2024-02-16T04:45:38;9.90;94.30
298;DHT22;133;49.626;9.680;2024-02-16T04:48:07;9.90;94.50
298;DHT22;133;49.626;9.680;2024-02-16T04:50:34;10.00;94.70
298;DHT22;133;49.626;9.680;2024-02-16T04:53:00;9.90;94.60
298;DHT22;133;49.626;9.680;2024-02-16T04:55:29;10.00;94.30
298;DHT22;133;49.626;9.680;2024-02-16T04:57:56;9.90;94.20
298;DHT22;133;49.626;9.680;2024-02-16T05:00:22;9.90;94.40
298;DHT22;133;49.626;9.680;2024-02-16T05:02:48;9.90;94.40
298;DHT22;133;49.626;9.680;2024-02-16T05:05:13;9.90;94.40
298;DHT22;133;49.626;9.680;2024-02-16T05:07:42;9.80;94.40
298;DHT22;133;49.626;9.680;2024-02-16T05:10:10;9.80;94.30
298;DHT22;133;49.626;9.680;2024-02-16T05:12:36;9.80;94.60
298;DHT22;133;49.626;9.680;2024-02-16T05:15:03;9.70;94.60
298;DHT22;133;49.626;9.680;2024-02-16T05:17:29;9.70;94.60
298;DHT22;133;49.626;9.680;2024-02-16T05:19:54;9.70;94.80
298;DHT22;133;49.626;9.680;2024-02-16T05:22:20;9.80;94.70
298;DHT22;133;49.626;9.680;2024-02-16T05:24:47;9.80;94.80
298;DHT22;133;49.626;9.680;2024-02-16T05:27:13;9.90;94.70
298;DHT22;133;49.626;9.680;2024-02-16T05:29:39;9.90;94.70
298;DHT22;133;49.626;9.680;2024-02-16T05:32:05;9.90;94.60
298;DHT22;133;49.626;9.680;2024-02-16T05:34:30;10.00;94.70
298;DHT22;133;49.626;9.680;2024-02-16T05:37:04;10.00;94.60
298;DHT22;133;49.626;9.680;2024-02-16T05:39:32;10.00;94.50
298;DHT22;133;49.626;9.680;2024-02-16T05:42:00;10.00;94.40
298;DHT22;133;49.626;9.680;2024-02-16T05:44:26;9.90;94.20
298;DHT22;133;49.626;9.680;2024-02-16T05:46:52;9.80;94.20
298;DHT22;133;49.626;9.680;2024-02-16T05:49:17;9.80;94.60
298;DHT22;133;49.626;9.680;2024-02-16T05:51:43;9.80;94.80
298;DHT22;133;49.626;9.680;2024-02-16T05:54:27;9.80;94.70
298;DHT22;133;49.626;9.680;2024-02-16T05:56:53;9.70;94.80
298;DHT22;133;49.626;9.680;2024-02-16T05:59:18;9.80;94.80
298;DHT22;133;49.626;9.680;2024-02-16T06:01:44;9.80;94.90
298;DHT22;133;49.626;9.680;2024-02-16T06:04:09;9.80;94.80
298;DHT22;133;49.626;9.680;2024-02-16T06:06:36;9.80;94.90
298;DHT22;133;49.626;9.680;2024-02-16T06:09:01;9.70;94.80
298;DHT22;133;49.626;9.680;2024-02-16T06:11:27;9.70;94.90
298;DHT22;133;49.626;9.680;2024-02-16T06:13:52;9.70;95.00
298;DHT22;133;49.626;9.680;2024-02-16T06:16:18;9.80;95.10
298;DHT22;133;49.626;9.680;2024-02-16T06:18:44;9.80;94.90
298;DHT22;133;49.626;9.680;2024-02-16T06:21:10;9.70;94.80
298;DHT22;133;49.626;9.680;2024-02-16T06:23:36;9.60;94.60
298;DHT22;133;49.626;9.680;2024-02-16T06:26:01;9.60;94.50
298;DHT22;133;49.626;9.680;2024-02-16T06:28:27;9.50;95.00
298;DHT22;133;49.626;9.680;2024-02-16T06:30:52;9.50;95.00
298;DHT22;133;49.626;9.680;2024-02-16T06:33:18;9.50;95.10
298;DHT22;133;49.626;9.680;2024-02-16T06:35:45;9.40;95.40
298;DHT22;133;49.626;9.680;2024-02-16T06:38:12;9.40;95.50
298;DHT22;133;49.626;9.680;2024-02-16T06:40:37;9.40;95.40
298;DHT22;133;49.626;9.680;2024-02-16T06:43:03;9.40;95.50
298;DHT22;133;49.626;9.680;2024-02-16T06:45:30;9.40;95.50
298;DHT22;133;49.626;9.680;2024-02-16T06:47:56;9.40;95.50
298;DHT22;133;49.626;9.680;2024-02-16T06:50:22;9.40;95.70
298;DHT22;133;49.626;9.680;2024-02-16T06:52:47;9.40;95.60
298;DHT22;133;49.626;9.680;2024-02-16T06:55:13;9.40;95.60
298;DHT22;133;49.626;9.680;2024-02-16T06:57:39;9.40;95.50
298;DHT22;133;49.626;9.680;2024-02-16T07:00:05;9.40;95.60
298;DHT22;133;49.626;9.680;2024-02-16T07:02:31;9.50;95.50
298;DHT22;133;49.626;9.680;2024-02-16T07:04:57;9.50;95.50
298;DHT22;133;49.626;9.680;2024-02-16T07:07:23;9.40;95.30
298;DHT22;133;49.626;9.680;2024-02-16T07:09:49;9.40;95.50
298;DHT22;133;49.626;9.680;2024-02-16T07:12:14;9.40;95.40
298;DHT22;133;49.626;9.680;2024-02-16T07:14:40;9.30;95.60
298;DHT22;133;49.626;9.680;2024-02-16T07:17:06;9.40;95.60
298;DHT22;133;49.626;9.680;2024-02-16T07:19:35;9.40;95.60
298;DHT22;133;49.626;9.680;2024-02-16T07:22:00;9.40;95.50
298;DHT22;133;49.626;9.680;2024-02-16T07:24:26;9.40;95.50
298;DHT22;133;49.626;9.680;2024-02-16T07:26:52;9.40;95.50
298;DHT22;133;49.626;9.680;2024-02-16T07:29:18;9.40;95.50
298;DHT22;133;49.626;9.680;2024-02-16T07:31:44;9.40;95.60
298;DHT22;133;49.626;9.680;2024-02-16T07:34:10;9.50;95.70
298;DHT22;133;49.626;9.680;2024-02-16T07:36:37;9.50;95.30
298;DHT22;133;49.626;9.680;2024-02-16T07:39:02;9.50;95.30
298;DHT22;133;49.626;9.680;2024-02-16T07:41:30;9.50;94.80
298;DHT22;133;49.626;9.680;2024-02-16T07:43:56;9.40;95.40
298;DHT22;133;49.626;9.680;2024-02-16T07:46:21;9.40;95.60
298;DHT22;133;49.626;9.680;2024-02-16T07:48:48;9.40;95.50
298;DHT22;133;49.626;9.680;2024-02-16T07:51:14;9.30;96.00
298;DHT22;133;49.626;9.680;2024-02-16T07:53:39;9.40;96.00
298;DHT22;133;49.626;9.680;2024-02-16T07:56:07;9.40;95.80
298;DHT22;133;49.626;9.680;2024-02-16T07:58:33;9.50;95.90
298;DHT22;133;49.626;9.680;2024-02-16T08:00:58;9.50;95.90
298;DHT22;133;49.626;9.680;2024-02-16T08:03:24;9.60;96.00
298;DHT22;133;49.626;9.680;2024-02-16T08:05:49;9.70;96.10
298;DHT22;133;49.626;9.680;2024-02-16T08:08:15;9.80;95.90
298;DHT22;133;49.626;9.680;2024-02-16T08:10:41;9.90;95.70
298;DHT22;133;49.626;9.680;2024-02-16T08:13:06;10.00;95.40
298;DHT22;133;49.626;9.680;2024-02-16T08:15:32;10.20;95.10
298;DHT22;133;49.626;9.680;2024-02-16T08:17:58;10.30;94.70
298;DHT22;133;49.626;9.680;2024-02-16T08:20:23;10.30;94.30
298;DHT22;133;49.626;9.680;2024-02-16T08:22:49;10.40;94.40
298;DHT22;133;49.626;9.680;2024-02-16T08:25:15;10.60;94.20
298;DHT22;133;49.626;9.680;2024-02-16T08:27:40;10.70;93.60
298;DHT22;133;49.626;9.680;2024-02-16T08:30:06;10.80;92.90
298;DHT22;133;49.626;9.680;2024-02-16T08:32:34;10.80;92.80
298;DHT22;133;49.626;9.680;2024-02-16T08:35:00;10.90;92.60
298;DHT22;133;49.626;9.680;2024-02-16T08:37:25;11.00;92.00
298;DHT22;133;49.626;9.680;2024-02-16T08:39:52;11.00;92.20
298;DHT22;133;49.626;9.680;2024-02-16T08:42:17;11.00;92.20
298;DHT22;133;49.626;9.680;2024-02-16T08:44:43;11.00;92.50
298;DHT22;133;49.626;9.680;2024-02-16T08:47:09;11.10;91.90
298;DHT22;133;49.626;9.680;2024-02-16T08:49:35;11.20;91.90
298;DHT22;133;49.626;9.680;2024-02-16T08:52:01;11.20;91.70
298;DHT22;133;49.626;9.680;2024-02-16T08:54:28;11.20;91.70
298;DHT22;133;49.626;9.680;2024-02-16T08:56:53;11.30;91.50
298;DHT22;133;49.626;9.680;2024-02-16T08:59:20;11.40;91.70
298;DHT22;133;49.626;9.680;2024-02-16T09:01:46;11.40;91.40
298;DHT22;133;49.626;9.680;2024-02-16T09:04:12;11.40;91.50
298;DHT22;133;49.626;9.680;2024-02-16T09:06:37;11.40;91.20
298;DHT22;133;49.626;9.680;2024-02-16T09:09:04;11.50;91.20
298;DHT22;133;49.626;9.680;2024-02-16T09:11:32;11.60;90.90
298;DHT22;133;49.626;9.680;2024-02-16T09:13:57;11.80;90.80
298;DHT22;133;49.626;9.680;2024-02-16T09:16:23;11.90;90.60
298;DHT22;133;49.626;9.680;2024-02-16T09:18:49;12.00;90.20
298;DHT22;133;49.626;9.680;2024-02-16T09:21:14;12.10;89.80
298;DHT22;133;49.626;9.680;2024-02-16T09:23:40;12.10;89.60
298;DHT22;133;49.626;9.680;2024-02-16T09:26:06;12.20;89.60
298;DHT22;133;49.626;9.680;2024-02-16T09:28:41;12.20;89.50
298;DHT22;133;49.626;9.680;2024-02-16T09:31:07;12.30;89.30
298;DHT22;133;49.626;9.680;2024-02-16T09:33:33;12.50;88.80
298;DHT22;133;49.626;9.680;2024-02-16T09:36:00;12.60;88.70
298;DHT22;133;49.626;9.680;2024-02-16T09:38:26;12.40;88.40
298;DHT22;133;49.626;9.680;2024-02-16T09:40:51;12.10;89.40
298;DHT22;133;49.626;9.680;2024-02-16T09:43:29;12.20;90.30
298;DHT22;133;49.626;9.680;2024-02-16T09:45:59;12.40;89.40
298;DHT22;133;49.626;9.680;2024-02-16T09:48:27;12.40;89.20
298;DHT22;133;49.626;9.680;2024-02-16T09:50:55;12.50;88.90
298;DHT22;133;49.626;9.680;2024-02-16T09:53:24;12.60;88.70
298;DHT22;133;49.626;9.680;2024-02-16T09:55:50;12.70;88.20
298;DHT22;133;49.626;9.680;2024-02-16T09:58:18;12.80;88.10
298;DHT22;133;49.626;9.680;2024-02-16T10:01:02;12.90;88.20
298;DHT22;133;49.626;9.680;2024-02-16T10:03:30;13.10;87.40
298;DHT22;133;49.626;9.680;2024-02-16T10:06:10;13.10;87.70
298;DHT22;133;49.626;9.680;2024-02-16T10:08:53;13.30;87.60
298;DHT22;133;49.626;9.680;2024-02-16T10:11:21;13.40;87.10
298;DHT22;133;49.626;9.680;2024-02-16T10:14:00;13.60;86.70
298;DHT22;133;49.626;9.680;2024-02-16T10:16:27;13.70;86.40
298;DHT22;133;49.626;9.680;2024-02-16T10:19:05;13.70;86.20
298;DHT22;133;49.626;9.680;2024-02-16T10:21:36;13.80;85.90
298;DHT22;133;49.626;9.680;2024-02-16T10:24:09;13.90;85.70
298;DHT22;133;49.626;9.680;2024-02-16T10:26:35;14.10;85.60
298;DHT22;133;49.626;9.680;2024-02-16T10:29:17;14.30;85.40
298;DHT22;133;49.626;9.680;2024-02-16T10:31:45;14.50;85.00
298;DHT22;133;49.626;9.680;2024-02-16T10:34:11;14.80;84.10
298;DHT22;133;49.626;9.680;2024-02-16T10:36:38;15.00;83.40
298;DHT22;133;49.626;9.680;2024-02-16T10:39:05;15.20;82.60
298;DHT22;133;49.626;9.680;2024-02-16T10:41:50;15.50;81.80
298;DHT22;133;49.626;9.680;2024-02-16T10:44:16;15.70;81.50
298;DHT22;133;49.626;9.680;2024-02-16T10:46:42;15.90;80.30
298;DHT22;133;49.626;9.680;2024-02-16T10:49:08;15.90;79.60
298;DHT22;133;49.626;9.680;2024-02-16T10:51:55;16.00;79.60
298;DHT22;133;49.626;9.680;2024-02-16T10:54:25;15.90;77.70
298;DHT22;133;49.626;9.680;2024-02-16T10:56:53;15.80;77.50
298;DHT22;133;49.626;9.680;2024-02-16T10:59:20;15.80;77.50
298;DHT22;133;49.626;9.680;2024-02-16T11:01:45;15.80;77.50
298;DHT22;133;49.626;9.680;2024-02-16T11:04:14;15.60;76.40
298;DHT22;133;49.626;9.680;2024-02-16T11:06:56;15.50;77.10
298;DHT22;133;49.626;9.680;2024-02-16T11:09:35;15.40;76.60
298;DHT22;133;49.626;9.680;2024-02-16T11:12:02;15.40;76.40
298;DHT22;133;49.626;9.680;2024-02-16T11:14:36;15.30;76.60
298;DHT22;133;49.626;9.680;2024-02-16T11:17:13;15.40;76.90
298;DHT22;133;49.626;9.680;2024-02-16T11:19:46;15.40;76.10
298;DHT22;133;49.626;9.680;2024-02-16T11:22:19;15.40;76.20
298;DHT22;133;49.626;9.680;2024-02-16T11:24:46;15.60;76.20
298;DHT22;133;49.626;9.680;2024-02-16T11:27:12;15.60;75.80
298;DHT22;133;49.626;9.680;2024-02-16T11:29:38;15.60;75.90
298;DHT22;133;49.626;9.680;2024-02-16T11:32:05;15.70;76.30
298;DHT22;133;49.626;9.680;2024-02-16T11:34:32;15.90;75.80
298;DHT22;133;49.626;9.680;2024-02-16T11:37:00;16.00;74.90
298;DHT22;133;49.626;9.680;2024-02-16T11:39:26;16.10;74.40
298;DHT22;133;49.626;9.680;2024-02-16T11:42:05;16.20;74.70
298;DHT22;133;49.626;9.680;2024-02-16T11:44:35;16.50;74.70
298;DHT22;133;49.626;9.680;2024-02-16T11:47:02;17.00;74.30
298;DHT22;133;49.626;9.680;2024-02-16T11:49:32;17.60;72.20
298;DHT22;133;49.626;9.680;2024-02-16T11:52:01;17.90;71.10
298;DHT22;133;49.626;9.680;2024-02-16T11:54:29;18.10;69.90
298;DHT22;133;49.626;9.680;2024-02-16T11:56:55;18.20;69.20
298;DHT22;133;49.626;9.680;2024-02-16T11:59:21;17.80;70.10
298;DHT22;133;49.626;9.680;2024-02-16T12:01:52;17.60;70.70
298;DHT22;133;49.626;9.680;2024-02-16T12:04:27;17.20;71.70
298;DHT22;133;49.626;9.680;2024-02-16T12:06:59;17.00;72.50
298;DHT22;133;49.626;9.680;2024-02-16T12:09:26;16.80;72.70
298;DHT22;133;49.626;9.680;2024-02-16T12:11:55;16.80;73.30
298;DHT22;133;49.626;9.680;2024-02-16T12:14:24;16.50;74.00
298;DHT22;133;49.626;9.680;2024-02-16T12:16:50;16.50;74.70
298;DHT22;133;49.626;9.680;2024-02-16T12:19:18;16.40;74.70
298;DHT22;133;49.626;9.680;2024-02-16T12:21:44;16.50;74.80
298;DHT22;133;49.626;9.680;2024-02-16T12:24:10;16.50;74.20
298;DHT22;133;49.626;9.680;2024-02-16T12:26:36;16.40;74.50
298;DHT22;133;49.626;9.680;2024-02-16T12:29:02;16.40;74.80
298;DHT22;133;49.626;9.680;2024-02-16T12:31:30;16.40;74.80
298;DHT22;133;49.626;9.680;2024-02-16T12:33:55;16.50;75.00
298;DHT22;133;49.626;9.680;2024-02-16T12:36:21;16.50;74.70
298;DHT22;133;49.626;9.680;2024-02-16T12:38:49;16.60;74.80
298;DHT22;133;49.626;9.680;2024-02-16T12:41:15;16.80;74.80
298;DHT22;133;49.626;9.680;2024-02-16T12:43:41;17.00;74.50
298;DHT22;133;49.626;9.680;2024-02-16T12:46:06;17.10;73.90
298;DHT22;133;49.626;9.680;2024-02-16T12:48:32;17.00;74.30
298;DHT22;133;49.626;9.680;2024-02-16T12:50:58;17.20;74.30
298;DHT22;133;49.626;9.680;2024-02-16T12:53:23;17.10;74.30
298;DHT22;133;49.626;9.680;2024-02-16T12:55:51;17.20;74.40
298;DHT22;133;49.626;9.680;2024-02-16T12:58:16;17.40;74.10
298;DHT22;133;49.626;9.680;2024-02-16T13:00:42;17.30;74.10
298;DHT22;133;49.626;9.680;2024-02-16T13:03:08;17.40;74.10
298;DHT22;133;49.626;9.680;2024-02-16T13:05:33;17.60;73.60
298;DHT22;133;49.626;9.680;2024-02-16T13:08:00;17.50;73.50
298;DHT22;133;49.626;9.680;2024-02-16T13:10:25;17.70;73.50
298;DHT22;133;49.626;9.680;2024-02-16T13:12:51;18.10;73.00
298;DHT22;133;49.626;9.680;2024-02-16T13:15:16;18.40;72.50
298;DHT22;133;49.626;9.680;2024-02-16T13:17:42;18.80;71.10
298;DHT22;133;49.626;9.680;2024-02-16T13:20:08;19.30;70.60
298;DHT22;133;49.626;9.680;2024-02-16T13:22:37;19.60;69.80
298;DHT22;133;49.626;9.680;2024-02-16T13:25:04;20.10;68.60
298;DHT22;133;49.626;9.680;2024-02-16T13:27:30;20.60;66.60
298;DHT22;133;49.626;9.680;2024-02-16T13:29:55;21.00;66.60
298;DHT22;133;49.626;9.680;2024-02-16T13:32:21;21.30;65.40
298;DHT22;133;49.626;9.680;2024-02-16T13:34:48;21.70;64.60
298;DHT22;133;49.626;9.680;2024-02-16T13:37:13;21.90;63.90
298;DHT22;133;49.626;9.680;2024-02-16T13:39:39;21.50;63.80
298;DHT22;133;49.626;9.680;2024-02-16T13:42:05;21.10;64.80
298;DHT22;133;49.626;9.680;2024-02-16T13:44:31;21.10;65.70
298;DHT22;133;49.626;9.680;2024-02-16T13:46:57;20.80;66.10
298;DHT22;133;49.626;9.680;2024-02-16T13:49:23;20.40;66.80
298;DHT22;133;49.626;9.680;2024-02-16T13:51:49;19.80;68.40
298;DHT22;133;49.626;9.680;2024-02-16T13:54:14;19.40;68.80
298;DHT22;133;49.626;9.680;2024-02-16T13:56:40;18.90;70.40
298;DHT22;133;49.626;9.680;2024-02-16T13:59:06;18.70;70.80
298;DHT22;133;49.626;9.680;2024-02-16T14:01:35;18.60;71.10
298;DHT22;133;49.626;9.680;2024-02-16T14:04:02;18.50;71.60
298;DHT22;133;49.626;9.680;2024-02-16T14:06:28;18.40;71.90
298;DHT22;133;49.626;9.680;2024-02-16T14:08:54;18.40;72.10
298;DHT22;133;49.626;9.680;2024-02-16T14:11:21;18.30;72.30
298;DHT22;133;49.626;9.680;2024-02-16T14:13:48;18.20;72.60
298;DHT22;133;49.626;9.680;2024-02-16T14:16:14;18.30;72.80
298;DHT22;133;49.626;9.680;2024-02-16T14:18:39;18.30;72.00
298;DHT22;133;49.626;9.680;2024-02-16T14:21:05;18.30;72.30
298;DHT22;133;49.626;9.680;2024-02-16T14:23:32;18.10;72.50
298;DHT22;133;49.626;9.680;2024-02-16T14:25:58;18.20;73.00
298;DHT22;133;49.626;9.680;2024-02-16T14:28:24;18.50;72.50
298;DHT22;133;49.626;9.680;2024-02-16T14:30:49;18.50;71.80
298;DHT22;133;49.626;9.680;2024-02-16T14:33:16;18.30;71.50
298;DHT22;133;49.626;9.680;2024-02-16T14:35:43;18.30;72.10
298;DHT22;133;49.626;9.680;2024-02-16T14:38:09;18.40;72.10
298;DHT22;133;49.626;9.680;2024-02-16T14:40:34;18.40;72.40
298;DHT22;133;49.626;9.680;2024-02-16T14:43:01;18.30;71.80
298;DHT22;133;49.626;9.680;2024-02-16T14:45:27;18.20;72.40
298;DHT22;133;49.626;9.680;2024-02-16T14:47:53;18.20;72.20
298;DHT22;133;49.626;9.680;2024-02-16T14:50:18;18.40;72.50
298;DHT22;133;49.626;9.680;2024-02-16T14:52:44;18.30;72.20
298;DHT22;133;49.626;9.680;2024-02-16T14:55:11;18.20;72.70
298;DHT22;133;49.626;9.680;2024-02-16T14:57:39;18.10;72.80
298;DHT22;133;49.626;9.680;2024-02-16T15:00:09;18.00;73.20
298;DHT22;133;49.626;9.680;2024-02-16T15:02:36;18.00;73.00
298;DHT22;133;49.626;9.680;2024-02-16T15:05:04;17.90;73.00
298;DHT22;133;49.626;9.680;2024-02-16T15:07:29;17.70;73.90
298;DHT22;133;49.626;9.680;2024-02-16T15:09:55;17.60;74.00
298;DHT22;133;49.626;9.680;2024-02-16T15:12:21;17.60;74.30
298;DHT22;133;49.626;9.680;2024-02-16T15:14:47;17.50;74.30
298;DHT22;133;49.626;9.680;2024-02-16T15:17:13;17.40;74.70
298;DHT22;133;49.626;9.680;2024-02-16T15:19:39;17.30;74.80
298;DHT22;133;49.626;9.680;2024-02-16T15:22:04;17.20;75.00
298;DHT22;133;49.626;9.680;2024-02-16T15:24:30;17.10;75.50
298;DHT22;133;49.626;9.680;2024-02-16T15:26:56;17.20;75.40
298;DHT22;133;49.626;9.680;2024-02-16T15:29:21;17.10;75.20
298;DHT22;133;49.626;9.680;2024-02-16T15:31:47;17.10;75.80
298;DHT22;133;49.626;9.680;2024-02-16T15:34:13;16.90;75.90
298;DHT22;133;49.626;9.680;2024-02-16T15:36:39;16.90;76.10
298;DHT22;133;49.626;9.680;2024-02-16T15:39:05;16.80;76.50
298;DHT22;133;49.626;9.680;2024-02-16T15:41:32;16.70;76.80
298;DHT22;133;49.626;9.680;2024-02-16T15:43:58;16.70;76.90
298;DHT22;133;49.626;9.680;2024-02-16T15:46:24;16.60;77.20
298;DHT22;133;49.626;9.680;2024-02-16T15:48:49;16.70;77.40
298;DHT22;133;49.626;9.680;2024-02-16T15:51:15;16.60;77.80
298;DHT22;133;49.626;9.680;2024-02-16T15:53:41;16.50;78.10
298;DHT22;133;49.626;9.680;2024-02-16T15:56:07;16.50;78.30
298;DHT22;133;49.626;9.680;2024-02-16T15:58:32;16.40;78.40
298;DHT22;133;49.626;9.680;2024-02-16T16:00:58;16.30;78.80
298;DHT22;133;49.626;9.680;2024-02-16T16:03:24;16.30;79.00
298;DHT22;133;49.626;9.680;2024-02-16T16:05:49;16.40;79.00
298;DHT22;133;49.626;9.680;2024-02-16T16:08:18;16.40;79.20
298;DHT22;133;49.626;9.680;2024-02-16T16:10:45;16.30;79.20
298;DHT22;133;49.626;9.680;2024-02-16T16:13:11;16.30;79.40
298;DHT22;133;49.626;9.680;2024-02-16T16:15:37;16.20;79.70
298;DHT22;133;49.626;9.680;2024-02-16T16:18:03;16.20;79.80
298;DHT22;133;49.626;9.680;2024-02-16T16:20:29;16.30;79.70
298;DHT22;133;49.626;9.680;2024-02-16T16:22:55;16.30;79.80
298;DHT22;133;49.626;9.680;2024-02-16T16:25:20;16.20;79.90
298;DHT22;133;49.626;9.680;2024-02-16T16:27:46;16.10;80.40
298;DHT22;133;49.626;9.680;2024-02-16T16:30:13;16.10;80.60
298;DHT22;133;49.626;9.680;2024-02-16T16:32:41;16.10;80.60
298;DHT22;133;49.626;9.680;2024-02-16T16:35:07;16.10;80.80